createdAt,value
2022-11-09T00:00:00.390Z,90.06
2022-11-09T00:02:27.318Z,90.37
2022-11-09T00:04:53.774Z,90.39
2022-11-09T00:07:20.356Z,90.49
2022-11-09T00:09:46.960Z,90.48
2022-11-09T00:12:13.528Z,90.30
2022-11-09T00:14:40.031Z,90.60
2022-11-09T00:17:06.544Z,90.45
2022-11-09T00:19:33.043Z,90.37
2022-11-09T00:21:59.503Z,90.59
2022-11-09T00:24:25.952Z,90.39
2022-11-09T00:26:52.519Z,90.93
2022-11-09T00:29:18.974Z,91.01
2022-11-09T00:31:45.436Z,90.81
2022-11-09T00:34:11.930Z,90.76
2022-11-09T00:36:38.387Z,91.13
2022-11-09T00:39:04.837Z,91.06
2022-11-09T00:41:31.605Z,91.43
2022-11-09T00:43:58.090Z,92.09
2022-11-09T00:46:24.906Z,92.49
2022-11-09T00:48:51.741Z,92.38
2022-11-09T00:51:19.000Z,92.43
2022-11-09T00:53:48.180Z,92.74
2022-11-09T00:56:14.910Z,92.63
2022-11-09T00:58:41.567Z,93.59
2022-11-09T01:01:14.099Z,93.70
2022-11-09T01:03:40.738Z,93.72
2022-11-09T01:06:08.037Z,94.21
2022-11-09T01:08:35.253Z,94.18
2022-11-09T01:11:06.870Z,94.28
2022-11-09T01:13:33.399Z,94.61
2022-11-09T01:15:59.951Z,94.25
2022-11-09T01:18:26.451Z,94.49
2022-11-09T01:20:52.933Z,94.66
2022-11-09T01:23:20.666Z,94.76
2022-11-09T01:25:47.436Z,94.82
2022-11-09T01:28:13.889Z,95.21
2022-11-09T01:30:42.243Z,95.50
2022-11-09T01:33:11.198Z,95.29
2022-11-09T01:35:39.138Z,95.82
2022-11-09T01:38:06.525Z,95.67
2022-11-09T01:40:33.851Z,95.87
2022-11-09T01:43:07.033Z,96.23
2022-11-09T01:45:33.482Z,96.28
2022-11-09T01:48:06.858Z,96.54
2022-11-09T01:50:41.538Z,96.53
2022-11-09T01:53:11.639Z,96.28
2022-11-09T01:55:38.133Z,96.47
2022-11-09T01:58:08.704Z,97.10
2022-11-09T02:00:37.409Z,96.76
2022-11-09T02:03:08.506Z,96.89
2022-11-09T02:05:36.526Z,96.75
2022-11-09T02:08:05.520Z,96.21
2022-11-09T02:10:56.021Z,96.49
2022-11-09T02:13:25.010Z,96.36
2022-11-09T02:15:51.817Z,96.60
2022-11-09T02:18:19.163Z,96.94
2022-11-09T02:20:54.177Z,97.04
2022-11-09T02:23:21.345Z,97.43
2022-11-09T02:25:55.746Z,97.29
2022-11-09T02:28:22.774Z,97.50
2022-11-09T02:30:51.828Z,97.70
2022-11-09T02:33:18.619Z,97.63
2022-11-09T02:35:45.220Z,98.23
2022-11-09T02:38:13.017Z,98.54
2022-11-09T02:40:41.564Z,98.80
2022-11-09T02:43:08.658Z,98.51
2022-11-09T02:45:35.126Z,98.26
2022-11-09T02:48:01.598Z,98.70
2022-11-09T02:50:28.473Z,99.00
2022-11-09T02:52:54.995Z,98.71
2022-11-09T02:55:21.445Z,98.67
2022-11-09T02:57:47.906Z,98.74
2022-11-09T03:00:14.738Z,98.94
2022-11-09T03:02:41.482Z,99.05
2022-11-09T03:05:08.093Z,98.67
2022-11-09T03:07:34.545Z,98.94
2022-11-09T03:10:00.998Z,98.93
2022-11-09T03:12:30.021Z,99.29
2022-11-09T03:14:58.199Z,99.32
2022-11-09T03:17:25.101Z,99.30
2022-11-09T03:19:51.578Z,98.90
2022-11-09T03:22:18.064Z,99.00
2022-11-09T03:24:44.612Z,98.78
2022-11-09T03:27:11.074Z,98.41
2022-11-09T03:29:37.540Z,98.31
2022-11-09T03:32:04.646Z,98.39
2022-11-09T03:34:31.123Z,97.76
2022-11-09T03:36:57.749Z,97.63
2022-11-09T03:39:24.188Z,97.83
2022-11-09T03:41:50.640Z,97.61
2022-11-09T03:44:17.071Z,97.86
2022-11-09T03:46:43.523Z,97.85
2022-11-09T03:49:10.288Z,98.41
2022-11-09T03:51:36.754Z,98.21
2022-11-09T03:54:03.219Z,98.32
2022-11-09T03:56:29.674Z,98.18
2022-11-09T03:58:56.117Z,98.65
2022-11-09T04:01:22.700Z,98.16
2022-11-09T04:03:49.211Z,98.48
2022-11-09T04:06:15.693Z,98.50
2022-11-09T04:08:45.724Z,98.38
2022-11-09T04:11:14.869Z,98.24
2022-11-09T04:13:41.322Z,98.42
2022-11-09T04:16:07.888Z,98.07
2022-11-09T04:18:34.324Z,97.62
2022-11-09T04:21:00.964Z,97.70
2022-11-09T04:23:27.485Z,97.54
2022-11-09T04:25:53.950Z,97.45
2022-11-09T04:28:20.411Z,97.68
2022-11-09T04:30:46.870Z,97.29
2022-11-09T04:33:13.338Z,97.57
2022-11-09T04:35:39.777Z,97.49
2022-11-09T04:38:07.792Z,97.88
2022-11-09T04:40:35.246Z,98.21
2022-11-09T04:43:03.492Z,98.46
2022-11-09T04:45:29.960Z,98.23
2022-11-09T04:48:05.810Z,98.66
2022-11-09T04:50:33.077Z,98.78
2022-11-09T04:53:11.010Z,98.14
2022-11-09T04:55:37.827Z,98.34
2022-11-09T04:58:12.113Z,97.41
2022-11-09T05:00:38.789Z,97.61
2022-11-09T05:03:06.519Z,97.16
2022-11-09T05:05:34.367Z,97.61
2022-11-09T05:08:00.864Z,96.90
2022-11-09T05:10:27.433Z,97.49
2022-11-09T05:12:58.674Z,97.26
2022-11-09T05:15:25.220Z,97.73
2022-11-09T05:17:51.680Z,97.46
2022-11-09T05:20:18.167Z,97.29
2022-11-09T05:23:03.210Z,96.56
2022-11-09T05:25:29.650Z,97.38
2022-11-09T05:27:56.111Z,97.32
2022-11-09T05:30:22.873Z,97.73
2022-11-09T05:32:49.342Z,98.10
2022-11-09T05:35:15.835Z,98.05
2022-11-09T05:37:42.385Z,98.19
2022-11-09T05:40:09.539Z,98.03
2022-11-09T05:42:40.728Z,98.51
2022-11-09T05:45:40.243Z,98.98
2022-11-09T05:47:56.087Z,98.32
2022-11-09T05:50:22.567Z,98.58
2022-11-09T05:52:49.024Z,98.62
2022-11-09T05:55:15.485Z,98.94
2022-11-09T05:57:41.959Z,98.69
2022-11-09T06:00:11.096Z,99.43
2022-11-09T06:02:37.828Z,99.36
2022-11-09T06:05:04.414Z,99.37
2022-11-09T06:07:30.865Z,99.43
2022-11-09T06:09:57.317Z,99.07
2022-11-09T06:12:23.785Z,99.62
2022-11-09T06:14:50.236Z,100.00
2022-11-09T06:17:16.688Z,99.97
2022-11-09T06:19:43.202Z,100.00
2022-11-09T06:22:09.669Z,100.00
2022-11-09T06:24:36.120Z,100.00
2022-11-09T06:27:02.600Z,100.00
2022-11-09T06:29:29.057Z,100.00
2022-11-09T06:31:55.622Z,100.00
2022-11-09T06:34:22.069Z,100.00
2022-11-09T06:36:48.523Z,100.00
2022-11-09T06:39:15.039Z,100.00
2022-11-09T06:41:46.186Z,100.00
2022-11-09T06:44:13.981Z,100.00
2022-11-09T06:46:40.505Z,100.00
2022-11-09T06:49:07.094Z,100.00
2022-11-09T06:51:33.618Z,100.00
2022-11-09T06:54:00.090Z,100.00
2022-11-09T06:56:26.652Z,100.00
2022-11-09T06:58:53.093Z,100.00
2022-11-09T07:01:20.124Z,100.00
2022-11-09T07:03:46.669Z,100.00
2022-11-09T07:06:13.988Z,100.00
2022-11-09T07:08:41.287Z,100.00
2022-11-09T07:11:10.834Z,100.00
2022-11-09T07:13:38.199Z,100.00
2022-11-09T07:16:05.648Z,100.00
2022-11-09T07:18:32.339Z,100.00
2022-11-09T07:20:58.805Z,100.00
2022-11-09T07:23:25.415Z,100.00
2022-11-09T07:25:52.331Z,100.00
2022-11-09T07:28:18.920Z,99.13
2022-11-09T07:30:45.478Z,97.01
2022-11-09T07:33:18.086Z,95.51
2022-11-09T07:35:44.778Z,94.26
2022-11-09T07:38:11.306Z,93.60
2022-11-09T07:40:37.815Z,93.19
2022-11-09T07:43:05.651Z,93.13
2022-11-09T07:45:33.313Z,92.44
2022-11-09T07:48:01.597Z,91.37
2022-11-09T07:50:29.260Z,90.37
2022-11-09T07:52:56.506Z,90.99
2022-11-09T07:55:23.371Z,92.00
2022-11-09T07:57:51.491Z,91.07
2022-11-09T08:00:23.353Z,91.40
2022-11-09T08:02:50.201Z,92.62
2022-11-09T08:05:16.713Z,93.49
2022-11-09T08:07:43.214Z,93.83
2022-11-09T08:10:10.043Z,94.20
2022-11-09T08:12:37.368Z,94.69
2022-11-09T08:15:05.121Z,94.94
2022-11-09T08:17:32.279Z,95.68
2022-11-09T08:19:58.734Z,95.48
2022-11-09T08:22:25.203Z,95.88
2022-11-09T08:24:52.129Z,95.29
2022-11-09T08:27:18.630Z,95.95
2022-11-09T08:29:45.266Z,95.46
2022-11-09T08:32:12.153Z,95.88
2022-11-09T08:34:38.605Z,95.97
2022-11-09T08:37:05.374Z,95.40
2022-11-09T08:39:31.893Z,95.67
2022-11-09T08:41:58.613Z,95.48
2022-11-09T08:44:25.066Z,94.54
2022-11-09T08:46:51.532Z,92.53
2022-11-09T08:49:18.041Z,91.43
2022-11-09T08:51:44.593Z,92.74
2022-11-09T08:54:13.429Z,92.88
2022-11-09T08:56:40.061Z,93.72
2022-11-09T08:59:06.570Z,94.64
2022-11-09T09:01:33.087Z,95.35
2022-11-09T09:03:59.604Z,96.01
2022-11-09T09:06:30.816Z,96.16
2022-11-09T09:08:57.834Z,95.74
2022-11-09T09:11:24.341Z,96.52
2022-11-09T09:13:50.808Z,95.68
2022-11-09T09:16:17.301Z,95.89
2022-11-09T09:18:43.947Z,95.58
2022-11-09T09:21:10.767Z,95.72
2022-11-09T09:23:37.600Z,95.66
2022-11-09T09:26:04.255Z,95.63
2022-11-09T09:28:30.785Z,94.85
2022-11-09T09:30:59.596Z,94.90
2022-11-09T09:33:26.237Z,93.82
2022-11-09T09:35:55.509Z,92.82
2022-11-09T09:38:22.392Z,92.26
2022-11-09T09:40:59.105Z,92.72
2022-11-09T09:43:43.220Z,92.80
2022-11-09T09:46:18.088Z,92.73
2022-11-09T09:48:51.849Z,92.49
2022-11-09T09:51:39.986Z,92.51
2022-11-09T09:54:19.795Z,92.14
2022-11-09T09:56:47.314Z,92.48
2022-11-09T09:59:38.560Z,92.22
2022-11-09T10:02:16.200Z,91.58
2022-11-09T10:04:42.714Z,91.00
2022-11-09T10:07:33.606Z,90.58
2022-11-09T10:10:07.039Z,90.33
2022-11-09T10:13:11.617Z,90.56
2022-11-09T10:15:38.959Z,90.66
2022-11-09T10:18:16.446Z,90.09
2022-11-09T10:21:20.371Z,90.27
2022-11-09T10:23:53.777Z,90.53
2022-11-09T10:26:28.126Z,90.48
2022-11-09T10:29:15.766Z,91.29
2022-11-09T10:31:44.093Z,91.91
2022-11-09T10:34:27.456Z,91.28
2022-11-09T10:37:02.087Z,92.35
2022-11-09T10:39:38.910Z,92.46
2022-11-09T10:42:05.413Z,93.05
2022-11-09T10:44:31.889Z,92.78
2022-11-09T10:47:05.906Z,93.59
2022-11-09T10:49:33.933Z,93.64
2022-11-09T10:52:00.893Z,93.66
2022-11-09T10:54:38.033Z,93.78
2022-11-09T10:57:12.980Z,94.14
2022-11-09T10:59:43.818Z,94.39
2022-11-09T11:02:30.391Z,93.88
2022-11-09T11:04:59.738Z,93.66
2022-11-09T11:07:26.307Z,93.87
2022-11-09T11:09:52.817Z,93.77
2022-11-09T11:12:22.518Z,93.37
2022-11-09T11:14:48.972Z,94.32
2022-11-09T11:17:25.425Z,94.43
2022-11-09T11:19:51.945Z,94.23
2022-11-09T11:22:22.670Z,94.56
2022-11-09T11:25:06.038Z,94.29
2022-11-09T11:28:14.536Z,94.22
2022-11-09T11:30:40.989Z,94.19
2022-11-09T11:33:20.737Z,94.37
2022-11-09T11:35:58.192Z,94.40
2022-11-09T11:38:33.813Z,94.28
2022-11-09T11:41:51.893Z,94.47
2022-11-09T11:44:40.020Z,94.42
2022-11-09T11:47:25.237Z,94.87
2022-11-09T11:50:11.863Z,94.61
2022-11-09T11:53:11.531Z,94.98
2022-11-09T11:55:53.033Z,94.63
2022-11-09T11:58:34.166Z,95.21
2022-11-09T12:01:31.245Z,95.48
2022-11-09T12:04:21.536Z,95.56
2022-11-09T12:06:53.870Z,94.82
2022-11-09T12:09:27.176Z,95.35
2022-11-09T12:12:17.042Z,95.55
2022-11-09T12:15:02.422Z,96.04
2022-11-09T12:17:42.311Z,95.74
2022-11-09T12:20:27.518Z,95.75
2022-11-09T12:23:11.111Z,95.53
2022-11-09T12:25:56.028Z,95.89
2022-11-09T12:28:52.496Z,95.80
2022-11-09T12:31:34.217Z,95.55
2022-11-09T12:34:05.914Z,95.77
2022-11-09T12:36:44.683Z,94.66
2022-11-09T12:39:40.313Z,95.01
2022-11-09T12:45:54.449Z,95.29
2022-11-09T12:52:01.351Z,95.39
2022-11-09T12:54:28.115Z,95.57
2022-11-09T12:57:00.177Z,96.22
2022-11-09T12:59:26.535Z,96.25
2022-11-09T13:01:55.478Z,96.12
2022-11-09T13:04:23.336Z,95.72
2022-11-09T13:07:17.740Z,95.30
2022-11-09T13:09:45.344Z,95.05
2022-11-09T13:12:20.385Z,94.92
2022-11-09T13:14:46.911Z,95.35
2022-11-09T13:17:28.466Z,94.86
2022-11-09T13:19:56.116Z,94.73
2022-11-09T13:22:23.054Z,94.83
2022-11-09T13:24:50.539Z,94.77
2022-11-09T13:27:40.498Z,95.58
2022-11-09T13:30:25.142Z,95.25
2022-11-09T13:33:18.858Z,95.74
2022-11-09T13:35:45.431Z,95.67
2022-11-09T13:38:16.879Z,95.34
2022-11-09T13:40:59.789Z,95.54
2022-11-09T13:43:29.605Z,95.17
2022-11-09T13:46:01.310Z,95.19
2022-11-09T13:48:41.241Z,95.14
2022-11-09T13:51:18.372Z,94.72
2022-11-09T13:54:00.415Z,95.20
2022-11-09T13:56:29.782Z,95.10
2022-11-09T13:59:03.265Z,94.85
2022-11-09T14:01:35.516Z,95.02
2022-11-09T14:04:04.651Z,95.04
2022-11-09T14:06:32.590Z,94.97
2022-11-09T14:09:00.317Z,94.88
2022-11-09T14:11:57.109Z,95.48
2022-11-09T14:14:43.740Z,95.54
2022-11-09T14:17:38.015Z,95.63
2022-11-09T14:20:53.984Z,96.07
2022-11-09T14:23:23.026Z,96.17
2022-11-09T14:25:49.481Z,96.00
2022-11-09T14:28:24.723Z,96.18
2022-11-09T14:30:55.858Z,96.21
2022-11-09T14:33:27.972Z,96.09
2022-11-09T14:35:57.252Z,96.59
2022-11-09T14:38:26.520Z,96.36
2022-11-09T14:40:53.941Z,96.26
2022-11-09T14:43:41.996Z,96.60
2022-11-09T14:46:16.786Z,96.51
2022-11-09T14:48:51.032Z,97.06
2022-11-09T14:51:17.575Z,97.13
2022-11-09T14:53:44.265Z,96.63
2022-11-09T14:56:13.874Z,96.47
2022-11-09T14:58:42.973Z,96.71
2022-11-09T15:01:19.935Z,96.91
2022-11-09T15:04:11.832Z,97.73
2022-11-09T15:06:52.754Z,98.34
2022-11-09T15:09:21.859Z,98.12
2022-11-09T15:11:49.138Z,98.46
2022-11-09T15:14:34.844Z,98.36
2022-11-09T15:17:18.833Z,98.47
2022-11-09T15:20:13.503Z,98.00
2022-11-09T15:22:51.057Z,97.62
2022-11-09T15:25:20.493Z,96.86
2022-11-09T15:28:15.294Z,97.28
2022-11-09T15:30:49.036Z,96.92
2022-11-09T15:33:18.574Z,96.90
2022-11-09T15:36:02.763Z,97.79
2022-11-09T15:38:45.850Z,97.77
2022-11-09T15:41:16.319Z,98.59
2022-11-09T15:43:43.347Z,98.73
2022-11-09T15:46:14.697Z,99.81
2022-11-09T15:48:45.748Z,100.00
2022-11-09T15:51:13.220Z,100.00
2022-11-09T15:53:39.908Z,100.00
2022-11-09T15:56:06.687Z,100.00
2022-11-09T15:58:33.219Z,99.77
2022-11-09T16:00:59.731Z,100.00
2022-11-09T16:03:26.285Z,100.00
2022-11-09T16:05:52.751Z,100.00
2022-11-09T16:08:19.748Z,99.94
2022-11-09T16:10:46.581Z,99.57
2022-11-09T16:13:13.053Z,99.71
2022-11-09T16:15:39.893Z,99.57
2022-11-09T16:18:06.741Z,99.37
2022-11-09T16:20:33.273Z,99.44
2022-11-09T16:22:59.760Z,99.63
2022-11-09T16:25:26.373Z,100.00
2022-11-09T16:27:53.499Z,100.00
2022-11-09T16:30:20.465Z,100.00
2022-11-09T16:32:46.946Z,100.00
2022-11-09T16:35:29.151Z,100.00
2022-11-09T16:37:56.159Z,100.00
2022-11-09T16:40:22.772Z,100.00
2022-11-09T16:42:50.252Z,100.00
2022-11-09T16:45:17.222Z,100.00
2022-11-09T16:47:48.570Z,100.00
2022-11-09T16:50:15.249Z,100.00
2022-11-09T16:52:41.769Z,100.00
2022-11-09T16:55:09.353Z,100.00
2022-11-09T16:57:37.749Z,100.00
2022-11-09T17:00:06.387Z,100.00
2022-11-09T17:02:32.969Z,100.00
2022-11-09T17:04:59.424Z,100.00
2022-11-09T17:07:25.907Z,100.00
2022-11-09T17:09:52.369Z,100.00
2022-11-09T17:12:18.899Z,100.00
2022-11-09T17:14:45.365Z,100.00
2022-11-09T17:17:11.874Z,100.00
2022-11-09T17:19:38.396Z,100.00
2022-11-09T17:22:04.932Z,100.00
2022-11-09T17:24:31.772Z,100.00
2022-11-09T17:27:02.510Z,100.00
2022-11-09T17:29:28.968Z,100.00
2022-11-09T17:31:55.511Z,100.00
2022-11-09T17:34:21.989Z,100.00
2022-11-09T17:37:03.635Z,100.00
2022-11-09T17:39:31.387Z,100.00
2022-11-09T17:41:57.890Z,100.00
2022-11-09T17:44:24.362Z,100.00
2022-11-09T17:46:50.877Z,100.00
2022-11-09T17:49:17.353Z,100.00
2022-11-09T17:51:43.804Z,100.00
2022-11-09T17:54:10.293Z,100.00
2022-11-09T17:56:36.759Z,100.00
2022-11-09T17:59:04.327Z,100.00
2022-11-09T18:01:30.856Z,100.00
2022-11-09T18:03:57.782Z,100.00
2022-11-09T18:06:24.723Z,100.00
2022-11-09T18:09:16.483Z,100.00
2022-11-09T18:11:37.630Z,100.00
2022-11-09T18:14:04.279Z,100.00
2022-11-09T18:16:30.795Z,100.00
2022-11-09T18:19:01.655Z,100.00
2022-11-09T18:21:28.609Z,100.00
2022-11-09T18:23:55.304Z,100.00
2022-11-09T18:26:21.896Z,100.00
2022-11-09T18:28:48.377Z,100.00
2022-11-09T18:31:14.935Z,100.00
2022-11-09T18:33:42.704Z,100.00
2022-11-09T18:36:15.544Z,100.00
2022-11-09T18:38:42.870Z,100.00
2022-11-09T18:41:10.273Z,100.00
2022-11-09T18:43:36.727Z,100.00
2022-11-09T18:46:05.603Z,100.00
2022-11-09T18:48:32.102Z,100.00
2022-11-09T18:50:59.375Z,100.00
2022-11-09T18:53:28.430Z,100.00
2022-11-09T18:56:06.507Z,100.00
2022-11-09T18:58:33.706Z,100.00
2022-11-09T19:01:05.413Z,100.00
2022-11-09T19:03:32.322Z,100.00
2022-11-09T19:05:58.764Z,100.00
2022-11-09T19:08:43.790Z,100.00
2022-11-09T19:11:12.083Z,100.00
2022-11-09T19:13:39.003Z,100.00
2022-11-09T19:16:06.586Z,100.00
2022-11-09T19:18:33.059Z,100.00
2022-11-09T19:20:59.552Z,100.00
2022-11-09T19:23:32.791Z,100.00
2022-11-09T19:26:01.425Z,100.00
2022-11-09T19:28:27.970Z,100.00
2022-11-09T19:30:57.152Z,100.00
2022-11-09T19:33:23.606Z,100.00
2022-11-09T19:36:23.139Z,100.00
2022-11-09T19:38:39.671Z,100.00
2022-11-09T19:41:06.181Z,100.00
2022-11-09T19:43:32.631Z,100.00
2022-11-09T19:45:59.073Z,100.00
2022-11-09T19:48:25.702Z,100.00
2022-11-09T19:50:52.820Z,100.00
2022-11-09T19:53:19.282Z,100.00
2022-11-09T19:55:45.778Z,100.00
2022-11-09T19:58:12.436Z,100.00
2022-11-09T20:00:38.924Z,100.00
2022-11-09T20:03:05.559Z,100.00
2022-11-09T20:05:35.610Z,100.00
2022-11-09T20:08:03.502Z,100.00
2022-11-09T20:10:32.765Z,100.00
2022-11-09T20:12:59.248Z,100.00
2022-11-09T20:15:25.701Z,100.00
2022-11-09T20:17:52.168Z,100.00
2022-11-09T20:20:18.672Z,100.00
2022-11-09T20:22:45.212Z,100.00
2022-11-09T20:25:11.644Z,100.00
2022-11-09T20:27:38.096Z,100.00
2022-11-09T20:30:05.205Z,100.00
2022-11-09T20:32:31.703Z,100.00
2022-11-09T20:34:58.200Z,100.00
2022-11-09T20:37:24.663Z,100.00
2022-11-09T20:39:51.112Z,100.00
2022-11-09T20:42:17.573Z,100.00
2022-11-09T20:44:44.032Z,100.00
2022-11-09T20:47:10.484Z,100.00
2022-11-09T20:49:36.926Z,100.00
2022-11-09T20:52:04.262Z,100.00
2022-11-09T20:54:30.705Z,100.00
2022-11-09T20:56:57.182Z,100.00
2022-11-09T20:59:23.648Z,100.00
2022-11-09T21:01:50.143Z,100.00
2022-11-09T21:04:16.739Z,100.00
2022-11-09T21:06:43.236Z,100.00
2022-11-09T21:09:09.819Z,100.00
2022-11-09T21:11:36.327Z,100.00
2022-11-09T21:14:03.248Z,100.00
2022-11-09T21:16:29.696Z,100.00
2022-11-09T21:18:56.165Z,100.00
2022-11-09T21:21:24.056Z,100.00
2022-11-09T21:24:09.242Z,100.00
2022-11-09T21:26:58.756Z,100.00
2022-11-09T21:29:43.849Z,100.00
2022-11-09T21:32:11.538Z,100.00
2022-11-09T21:34:38.202Z,100.00
2022-11-09T21:37:04.864Z,100.00
2022-11-09T21:39:31.663Z,100.00
2022-11-09T21:41:58.745Z,100.00
2022-11-09T21:44:27.256Z,100.00
2022-11-09T21:46:53.725Z,100.00
2022-11-09T21:49:20.219Z,100.00
2022-11-09T21:51:47.045Z,100.00
2022-11-09T21:54:13.515Z,100.00
2022-11-09T21:56:40.064Z,100.00
2022-11-09T21:59:06.634Z,100.00
2022-11-09T22:01:33.148Z,100.00
2022-11-09T22:03:59.681Z,100.00
2022-11-09T22:06:26.135Z,100.00
2022-11-09T22:08:52.676Z,100.00
2022-11-09T22:11:41.420Z,100.00
2022-11-09T22:14:34.702Z,100.00
2022-11-09T22:17:01.641Z,100.00
2022-11-09T22:20:06.519Z,100.00
2022-11-09T22:22:34.225Z,100.00
2022-11-09T22:25:00.675Z,100.00
2022-11-09T22:27:28.791Z,100.00
2022-11-09T22:29:55.237Z,100.00
2022-11-09T22:32:21.777Z,100.00
2022-11-09T22:34:48.375Z,100.00
2022-11-09T22:37:14.849Z,100.00
2022-11-09T22:39:46.765Z,100.00
2022-11-09T22:42:13.846Z,100.00
2022-11-09T22:44:40.389Z,100.00
2022-11-09T22:47:06.843Z,100.00
2022-11-09T22:49:34.154Z,100.00
2022-11-09T22:52:00.611Z,100.00
2022-11-09T22:54:27.807Z,100.00
2022-11-09T22:56:54.272Z,100.00
2022-11-09T22:59:20.712Z,100.00
2022-11-09T23:01:47.261Z,100.00
2022-11-09T23:04:13.759Z,100.00
2022-11-09T23:06:40.325Z,100.00
2022-11-09T23:09:06.928Z,100.00
2022-11-09T23:11:33.395Z,100.00
2022-11-09T23:13:59.861Z,100.00
2022-11-09T23:16:26.309Z,100.00
2022-11-09T23:18:53.916Z,100.00
2022-11-09T23:21:34.141Z,100.00
2022-11-09T23:24:03.728Z,100.00
2022-11-09T23:26:31.174Z,100.00
2022-11-09T23:28:57.656Z,100.00
2022-11-09T23:31:24.488Z,100.00
2022-11-09T23:33:52.370Z,100.00
2022-11-09T23:36:19.447Z,100.00
2022-11-09T23:38:46.205Z,100.00
2022-11-09T23:41:13.222Z,100.00
2022-11-09T23:43:39.735Z,100.00
2022-11-09T23:46:08.488Z,100.00
2022-11-09T23:48:35.225Z,100.00
2022-11-09T23:51:02.364Z,100.00
2022-11-09T23:53:30.103Z,100.00
2022-11-09T23:56:07.260Z,100.00
2022-11-09T23:58:33.815Z,100.00
